»·PEaware :: SWA113 KTUS-KPSP

SWA113 :: KTUS-KPSP

FLIGHT INFORMATION

Flight Status: Arrived
Operator:
Southwest Airlines
More flights by this operator :: More flights under this callsign
Pilot: Trevor P. (20148)
Aircraft: BOEING 737-700
(B737)
More flights by this aircraft type
Origin: KTUS Tucson Intl
United States
Destination: KPSP Palm Springs Intl
United States
More flights between these airports :: More routes between these airports
Route: +BURRO4 GBN J50 BLH SBONO1
File this flight plan on PilotEdge
Remarks:
Altitude:
(Current/Filed)
36,000ft
Speed:
(Current/Filed)
400kts
Departed: 13-May-19 03:01 PM
Arrived: 13-May-19 03:56 PM
Distance/Time
Traveled:
298nm/0:55
Distance/Time
To Go:
Arrived

Flight Plot

Page will automatically refresh every two minutes.


Map Options




Map Legend


Flown Route
Filed Route
Departure Airport
Arrival Airport
Navaid (VOR, NDB)
Fix

Horizontal Profiles

Position Reports

Time Latitude Longitude Heading Altitude Ground
Speed
13-May-19 14:25 32.118852 -110.937518 38 2607ft 0kts
13-May-19 14:26 32.118852 -110.937518 38 2607ft 0kts
13-May-19 14:27 32.118852 -110.937518 38 2607ft 0kts
13-May-19 14:28 32.118852 -110.937518 38 2607ft 0kts
13-May-19 14:29 32.118852 -110.937518 38 2607ft 0kts
13-May-19 14:30 32.118852 -110.937518 38 2607ft 0kts
13-May-19 14:31 32.118852 -110.937518 38 2607ft 0kts
13-May-19 14:32 32.118852 -110.937518 38 2607ft 0kts
13-May-19 14:33 32.118852 -110.937518 38 2607ft 0kts
13-May-19 14:34 32.118852 -110.937518 38 2607ft 0kts
13-May-19 14:35 32.118852 -110.937518 38 2607ft 0kts
13-May-19 14:36 32.118852 -110.937518 38 2607ft 0kts
13-May-19 14:37 32.118852 -110.937518 38 2607ft 0kts
13-May-19 14:38 32.118852 -110.937518 38 2607ft 0kts
13-May-19 14:39 32.118852 -110.937518 38 2607ft 0kts
13-May-19 14:40 32.118852 -110.937518 38 2607ft 0kts
13-May-19 14:41 32.118852 -110.937518 38 2607ft 0kts
13-May-19 14:42 32.118852 -110.937518 38 2607ft 0kts
13-May-19 14:43 32.118852 -110.937518 38 2607ft 0kts
13-May-19 14:44 32.118852 -110.937518 38 2607ft 0kts
13-May-19 14:45 32.118852 -110.937518 38 2607ft 0kts
13-May-19 14:46 32.118852 -110.937518 38 2607ft 0kts
13-May-19 14:47 32.118852 -110.937518 38 2607ft 0kts
13-May-19 14:48 32.118852 -110.937518 38 2607ft 0kts
13-May-19 14:49 32.118852 -110.937518 38 2607ft 0kts
13-May-19 14:50 32.118852 -110.937518 38 2607ft 0kts
13-May-19 14:51 32.118852 -110.937518 38 2607ft 0kts
13-May-19 14:52 32.118466 -110.937846 7 2608ft 2kts
13-May-19 14:53 32.118159 -110.937694 312 2608ft 0kts
13-May-19 14:54 32.118159 -110.937694 312 2608ft 0kts
13-May-19 14:55 32.118159 -110.937694 312 2608ft 0kts
13-May-19 14:56 32.118890 -110.939522 232 2605ft 10kts
13-May-19 14:57 32.121676 -110.943410 316 2591ft 21kts
13-May-19 14:58 32.123593 -110.946445 222 2583ft 0kts
13-May-19 14:59 32.123463 -110.946592 224 2582ft 10kts
13-May-19 15:00 32.106990 -110.928662 135 3120ft 186kts
13-May-19 15:01 32.067083 -110.887400 156 6238ft 221kts
13-May-19 15:02 32.003191 -110.900089 221 8675ft 270kts
13-May-19 15:03 31.976705 -110.979755 285 11894ft 286kts
13-May-19 15:04 32.013269 -111.063228 303 15172ft 296kts
13-May-19 15:05 32.059877 -111.157844 302 17352ft 360kts
13-May-19 15:06 32.121228 -111.252353 314 20557ft 372kts
13-May-19 15:07 32.191716 -111.344051 313 23360ft 386kts
13-May-19 15:08 32.264767 -111.439567 313 25985ft 398kts
13-May-19 15:09 32.329813 -111.547613 305 28380ft 409kts
13-May-19 15:10 32.392843 -111.661815 305 30509ft 420kts
13-May-19 15:11 32.456740 -111.777409 305 32778ft 420kts
13-May-19 15:12 32.520105 -111.891814 305 35132ft 412kts
13-May-19 15:13 32.583390 -112.005841 304 35992ft 423kts
13-May-19 15:14 32.647939 -112.122005 304 35953ft 423kts
13-May-19 15:15 32.712914 -112.238740 304 35952ft 424kts
13-May-19 15:16 32.777957 -112.355414 304 35952ft 425kts
13-May-19 15:17 32.843181 -112.472194 304 35951ft 425kts
13-May-19 15:18 32.908632 -112.589218 304 35951ft 426kts
13-May-19 15:19 32.978887 -112.703247 311 36096ft 424kts
13-May-19 15:20 33.057273 -112.808499 312 37388ft 426kts
13-May-19 15:21 33.136791 -112.914491 311 37508ft 428kts
13-May-19 15:22 33.216550 -113.020698 312 36336ft 427kts
13-May-19 15:23 33.296593 -113.127160 312 35955ft 430kts
13-May-19 15:24 33.375944 -113.234865 307 35957ft 430kts
13-May-19 15:25 33.438226 -113.357767 295 35951ft 428kts
13-May-19 15:26 33.475401 -113.494053 282 35956ft 434kts
13-May-19 15:27 33.491584 -113.637191 277 35958ft 433kts
13-May-19 15:28 33.505302 -113.778489 277 35961ft 433kts
13-May-19 15:29 33.519416 -113.922442 277 35963ft 433kts
13-May-19 15:30 33.532211 -114.065440 276 35955ft 426kts
13-May-19 15:31 33.544921 -114.207425 276 35715ft 428kts
13-May-19 15:32 33.557752 -114.348744 277 35312ft 429kts
13-May-19 15:33 33.570814 -114.490988 277 34908ft 429kts
13-May-19 15:34 33.584028 -114.633103 277 34501ft 430kts
13-May-19 15:35 33.604706 -114.774337 286 34106ft 430kts
13-May-19 15:36 33.644458 -114.909217 291 33710ft 429kts
13-May-19 15:37 33.687927 -115.042727 291 33308ft 429kts
13-May-19 15:38 33.731761 -115.176896 291 29496ft 431kts
13-May-19 15:39 33.774996 -115.308815 291 24992ft 422kts
13-May-19 15:40 33.817317 -115.437532 291 20487ft 410kts
13-May-19 15:41 33.856541 -115.558847 291 17625ft 371kts
13-May-19 15:42 33.892811 -115.671682 290 15595ft 354kts
13-May-19 15:43 33.913375 -115.780578 266 13686ft 338kts
13-May-19 15:44 33.905942 -115.890925 264 11821ft 324kts
13-May-19 15:45 33.898922 -115.998795 264 11029ft 328kts
13-May-19 15:46 33.855411 -116.090198 221 10144ft 322kts
13-May-19 15:47 33.789927 -116.160352 221 8242ft 310kts
13-May-19 15:48 33.726202 -116.228232 221 6338ft 302kts
13-May-19 15:49 33.676517 -116.297644 265 4783ft 256kts
13-May-19 15:50 33.710116 -116.363467 311 3766ft 223kts
13-May-19 15:51 33.745873 -116.413004 308 2900ft 163kts
13-May-19 15:52 33.772871 -116.450637 310 1770ft 141kts
13-May-19 15:53 33.800603 -116.481784 323 928ft 132kts
13-May-19 15:54 33.828371 -116.506481 323 428ft 69kts
13-May-19 15:55 33.832587 -116.512041 185 442ft 19kts
13-May-19 15:56 33.827120 -116.507419 144 425ft 23kts
13-May-19 15:58 33.823865 -116.505960 226 417ft 5kts
13-May-19 15:59 33.823720 -116.506156 229 417ft 0kts

Navigation Log

Ident Type
Flight plan parsing failed, navigation log unavailable